Terminal Aerodrome Forecast
Issued by NWS

Home | Current Version | Previous Version | Text Only | Print | Product List | Glossary Off
Versions: 1 2 3 4 5 6 7 8 9 10 11 12 13 14 15 16 17 18 19 20

250
FTUS43 KBIS 271135
TAFJMS
TAF
KJMS 271135Z 2712/2812 15012KT P6SM -SHRA VCTS FEW050CB BKN100
      TEMPO 2712/2713 VRB25G40KT 4SM TSRA BR BKN040CB
     FM271300 12009KT P6SM VCTS SCT050CB BKN080
     FM271500 12010KT P6SM SCT200
     FM280600 03008KT P6SM BKN250=

USA.gov is the U.S. government's official web portal to all federal, state and local government web resources and services.